sensor_id;sensor_type;location;lat;lon;timestamp;P1;durP1;ratioP1;P2;durP2;ratioP2
67164;SDS011;54093;50.014;19.984;2023-05-19T00:06:39;5.55;;;5.15;;
67164;SDS011;54093;50.014;19.984;2023-05-19T00:16:01;5.28;;;4.75;;
67164;SDS011;54093;50.014;19.984;2023-05-19T00:25:22;5.32;;;4.82;;
67164;SDS011;54093;50.014;19.984;2023-05-19T00:34:42;5.85;;;4.45;;
67164;SDS011;54093;50.014;19.984;2023-05-19T00:44:05;9.98;;;3.97;;
67164;SDS011;54093;50.014;19.984;2023-05-19T00:53:26;3.95;;;3.65;;
67164;SDS011;54093;50.014;19.984;2023-05-19T01:02:48;4.32;;;3.25;;
67164;SDS011;54093;50.014;19.984;2023-05-19T01:12:14;3.47;;;2.93;;
67164;SDS011;54093;50.014;19.984;2023-05-19T01:21:39;3.00;;;2.80;;
67164;SDS011;54093;50.014;19.984;2023-05-19T01:31:27;2.83;;;2.63;;
67164;SDS011;54093;50.014;19.984;2023-05-19T01:40:48;2.90;;;2.60;;
67164;SDS011;54093;50.014;19.984;2023-05-19T01:50:11;3.00;;;2.80;;
67164;SDS011;54093;50.014;19.984;2023-05-19T01:59:53;2.85;;;2.50;;
67164;SDS011;54093;50.014;19.984;2023-05-19T02:19:04;4.57;;;4.18;;
67164;SDS011;54093;50.014;19.984;2023-05-19T02:28:24;6.03;;;4.10;;
67164;SDS011;54093;50.014;19.984;2023-05-19T02:37:47;4.32;;;3.92;;
67164;SDS011;54093;50.014;19.984;2023-05-19T02:47:08;4.35;;;3.97;;
67164;SDS011;54093;50.014;19.984;2023-05-19T02:56:29;3.88;;;3.67;;
67164;SDS011;54093;50.014;19.984;2023-05-19T03:05:50;3.83;;;3.40;;
67164;SDS011;54093;50.014;19.984;2023-05-19T03:15:11;4.28;;;2.88;;
67164;SDS011;54093;50.014;19.984;2023-05-19T03:24:34;6.07;;;3.55;;
67164;SDS011;54093;50.014;19.984;2023-05-19T03:33:56;3.65;;;3.35;;
67164;SDS011;54093;50.014;19.984;2023-05-19T03:43:17;8.13;;;3.70;;
67164;SDS011;54093;50.014;19.984;2023-05-19T03:52:38;3.60;;;3.30;;
67164;SDS011;54093;50.014;19.984;2023-05-19T04:01:59;3.88;;;3.33;;
67164;SDS011;54093;50.014;19.984;2023-05-19T04:11:20;4.78;;;3.72;;
67164;SDS011;54093;50.014;19.984;2023-05-19T04:20:41;7.30;;;4.47;;
67164;SDS011;54093;50.014;19.984;2023-05-19T04:30:02;8.57;;;4.78;;
67164;SDS011;54093;50.014;19.984;2023-05-19T04:39:23;5.78;;;4.78;;
67164;SDS011;54093;50.014;19.984;2023-05-19T04:48:44;5.75;;;4.93;;
67164;SDS011;54093;50.014;19.984;2023-05-19T04:58:05;6.22;;;4.78;;
67164;SDS011;54093;50.014;19.984;2023-05-19T05:07:26;7.90;;;4.90;;
67164;SDS011;54093;50.014;19.984;2023-05-19T05:16:48;6.18;;;5.28;;
67164;SDS011;54093;50.014;19.984;2023-05-19T05:26:12;12.32;;;5.68;;
67164;SDS011;54093;50.014;19.984;2023-05-19T05:35:37;5.53;;;4.68;;
67164;SDS011;54093;50.014;19.984;2023-05-19T05:44:58;8.35;;;5.75;;
67164;SDS011;54093;50.014;19.984;2023-05-19T05:54:20;8.98;;;5.38;;
67164;SDS011;54093;50.014;19.984;2023-05-19T06:03:42;9.70;;;5.45;;
67164;SDS011;54093;50.014;19.984;2023-05-19T06:13:04;7.72;;;5.63;;
67164;SDS011;54093;50.014;19.984;2023-05-19T06:22:25;7.18;;;5.15;;
67164;SDS011;54093;50.014;19.984;2023-05-19T06:31:47;8.27;;;5.60;;
67164;SDS011;54093;50.014;19.984;2023-05-19T06:41:08;10.50;;;6.15;;
67164;SDS011;54093;50.014;19.984;2023-05-19T06:50:28;14.07;;;7.57;;
67164;SDS011;54093;50.014;19.984;2023-05-19T06:59:49;10.30;;;5.90;;
67164;SDS011;54093;50.014;19.984;2023-05-19T07:09:11;6.90;;;6.25;;
67164;SDS011;54093;50.014;19.984;2023-05-19T07:18:32;7.50;;;5.55;;
67164;SDS011;54093;50.014;19.984;2023-05-19T07:27:53;6.65;;;5.97;;
67164;SDS011;54093;50.014;19.984;2023-05-19T07:37:14;8.48;;;5.57;;
67164;SDS011;54093;50.014;19.984;2023-05-19T07:46:36;10.70;;;5.95;;
67164;SDS011;54093;50.014;19.984;2023-05-19T07:55:57;6.03;;;5.38;;
67164;SDS011;54093;50.014;19.984;2023-05-19T08:05:18;7.47;;;5.78;;
67164;SDS011;54093;50.014;19.984;2023-05-19T08:14:38;9.13;;;5.68;;
67164;SDS011;54093;50.014;19.984;2023-05-19T08:24:00;8.07;;;5.40;;
67164;SDS011;54093;50.014;19.984;2023-05-19T08:33:21;6.35;;;5.78;;
67164;SDS011;54093;50.014;19.984;2023-05-19T08:42:42;5.60;;;5.20;;
67164;SDS011;54093;50.014;19.984;2023-05-19T08:52:26;5.88;;;5.28;;
67164;SDS011;54093;50.014;19.984;2023-05-19T09:01:56;7.00;;;4.70;;
67164;SDS011;54093;50.014;19.984;2023-05-19T09:11:18;5.43;;;4.60;;
67164;SDS011;54093;50.014;19.984;2023-05-19T09:20:39;7.30;;;4.78;;
67164;SDS011;54093;50.014;19.984;2023-05-19T09:30:07;6.45;;;3.60;;
67164;SDS011;54093;50.014;19.984;2023-05-19T09:39:30;4.55;;;3.90;;
67164;SDS011;54093;50.014;19.984;2023-05-19T09:48:55;5.00;;;4.15;;
67164;SDS011;54093;50.014;19.984;2023-05-19T09:58:17;7.40;;;4.57;;
67164;SDS011;54093;50.014;19.984;2023-05-19T10:07:38;4.07;;;3.83;;
67164;SDS011;54093;50.014;19.984;2023-05-19T10:17:14;4.10;;;3.80;;
67164;SDS011;54093;50.014;19.984;2023-05-19T10:26:35;4.10;;;3.83;;
67164;SDS011;54093;50.014;19.984;2023-05-19T10:45:55;5.22;;;4.00;;
67164;SDS011;54093;50.014;19.984;2023-05-19T10:55:17;4.25;;;4.05;;
67164;SDS011;54093;50.014;19.984;2023-05-19T11:05:07;4.95;;;3.80;;
67164;SDS011;54093;50.014;19.984;2023-05-19T11:14:29;3.58;;;3.38;;
67164;SDS011;54093;50.014;19.984;2023-05-19T11:23:52;4.25;;;3.95;;
67164;SDS011;54093;50.014;19.984;2023-05-19T11:33:13;4.70;;;3.97;;
67164;SDS011;54093;50.014;19.984;2023-05-19T11:42:34;4.18;;;3.85;;
67164;SDS011;54093;50.014;19.984;2023-05-19T11:51:56;3.92;;;3.60;;
67164;SDS011;54093;50.014;19.984;2023-05-19T12:01:22;5.22;;;3.88;;
67164;SDS011;54093;50.014;19.984;2023-05-19T12:20:11;4.25;;;3.40;;
67164;SDS011;54093;50.014;19.984;2023-05-19T12:29:32;3.85;;;3.38;;
67164;SDS011;54093;50.014;19.984;2023-05-19T12:38:54;4.75;;;4.35;;
67164;SDS011;54093;50.014;19.984;2023-05-19T12:48:15;5.88;;;5.38;;
67164;SDS011;54093;50.014;19.984;2023-05-19T12:57:36;9.57;;;5.25;;
67164;SDS011;54093;50.014;19.984;2023-05-19T13:06:58;7.70;;;6.10;;
67164;SDS011;54093;50.014;19.984;2023-05-19T13:16:19;8.02;;;5.35;;
67164;SDS011;54093;50.014;19.984;2023-05-19T13:25:40;8.77;;;7.10;;
67164;SDS011;54093;50.014;19.984;2023-05-19T13:35:01;8.93;;;4.82;;
67164;SDS011;54093;50.014;19.984;2023-05-19T13:44:22;6.28;;;5.78;;
67164;SDS011;54093;50.014;19.984;2023-05-19T13:53:45;9.63;;;8.73;;
67164;SDS011;54093;50.014;19.984;2023-05-19T14:03:06;6.18;;;5.68;;
67164;SDS011;54093;50.014;19.984;2023-05-19T14:12:27;8.48;;;5.35;;
67164;SDS011;54093;50.014;19.984;2023-05-19T14:21:49;6.90;;;6.40;;
67164;SDS011;54093;50.014;19.984;2023-05-19T14:31:10;5.30;;;4.88;;
67164;SDS011;54093;50.014;19.984;2023-05-19T14:40:32;4.85;;;4.55;;
67164;SDS011;54093;50.014;19.984;2023-05-19T14:49:52;4.70;;;4.40;;
67164;SDS011;54093;50.014;19.984;2023-05-19T14:59:13;4.47;;;4.18;;
67164;SDS011;54093;50.014;19.984;2023-05-19T15:08:34;4.68;;;4.38;;
67164;SDS011;54093;50.014;19.984;2023-05-19T15:17:57;5.75;;;5.35;;
67164;SDS011;54093;50.014;19.984;2023-05-19T15:27:17;6.38;;;5.82;;
67164;SDS011;54093;50.014;19.984;2023-05-19T15:36:40;7.80;;;7.10;;
67164;SDS011;54093;50.014;19.984;2023-05-19T15:46:01;7.53;;;6.47;;
67164;SDS011;54093;50.014;19.984;2023-05-19T15:55:24;11.60;;;9.43;;
67164;SDS011;54093;50.014;19.984;2023-05-19T16:04:45;11.02;;;9.95;;
67164;SDS011;54093;50.014;19.984;2023-05-19T16:14:05;7.93;;;5.65;;
67164;SDS011;54093;50.014;19.984;2023-05-19T16:23:26;10.95;;;6.40;;
67164;SDS011;54093;50.014;19.984;2023-05-19T16:32:47;7.45;;;6.63;;
67164;SDS011;54093;50.014;19.984;2023-05-19T16:42:08;7.32;;;6.72;;
67164;SDS011;54093;50.014;19.984;2023-05-19T16:51:29;12.63;;;9.55;;
67164;SDS011;54093;50.014;19.984;2023-05-19T17:00:51;15.18;;;9.13;;
67164;SDS011;54093;50.014;19.984;2023-05-19T17:10:12;11.73;;;10.18;;
67164;SDS011;54093;50.014;19.984;2023-05-19T17:19:33;8.18;;;7.35;;
67164;SDS011;54093;50.014;19.984;2023-05-19T17:28:55;12.07;;;10.90;;
67164;SDS011;54093;50.014;19.984;2023-05-19T17:38:16;11.57;;;10.43;;
67164;SDS011;54093;50.014;19.984;2023-05-19T17:47:37;13.05;;;11.32;;
67164;SDS011;54093;50.014;19.984;2023-05-19T17:56:57;8.63;;;7.93;;
67164;SDS011;54093;50.014;19.984;2023-05-19T18:06:22;8.73;;;7.93;;
67164;SDS011;54093;50.014;19.984;2023-05-19T18:15:44;7.63;;;6.72;;
67164;SDS011;54093;50.014;19.984;2023-05-19T18:25:05;8.40;;;7.65;;
67164;SDS011;54093;50.014;19.984;2023-05-19T18:34:26;6.10;;;5.60;;
67164;SDS011;54093;50.014;19.984;2023-05-19T18:43:48;7.40;;;6.70;;
67164;SDS011;54093;50.014;19.984;2023-05-19T18:53:10;9.20;;;7.63;;
67164;SDS011;54093;50.014;19.984;2023-05-19T19:02:31;6.95;;;6.45;;
67164;SDS011;54093;50.014;19.984;2023-05-19T19:11:52;7.70;;;7.07;;
67164;SDS011;54093;50.014;19.984;2023-05-19T19:21:13;13.23;;;7.10;;
67164;SDS011;54093;50.014;19.984;2023-05-19T19:30:34;8.20;;;7.40;;
67164;SDS011;54093;50.014;19.984;2023-05-19T19:39:55;8.85;;;8.00;;
67164;SDS011;54093;50.014;19.984;2023-05-19T19:49:15;9.05;;;7.30;;
67164;SDS011;54093;50.014;19.984;2023-05-19T19:58:36;11.65;;;8.93;;
67164;SDS011;54093;50.014;19.984;2023-05-19T20:07:57;11.80;;;9.07;;
67164;SDS011;54093;50.014;19.984;2023-05-19T20:17:18;12.85;;;11.48;;
67164;SDS011;54093;50.014;19.984;2023-05-19T20:26:39;12.00;;;9.23;;
67164;SDS011;54093;50.014;19.984;2023-05-19T20:36:00;10.60;;;8.65;;
67164;SDS011;54093;50.014;19.984;2023-05-19T20:45:21;15.38;;;12.98;;
67164;SDS011;54093;50.014;19.984;2023-05-19T20:54:42;13.40;;;10.27;;
67164;SDS011;54093;50.014;19.984;2023-05-19T21:04:04;10.50;;;9.05;;
67164;SDS011;54093;50.014;19.984;2023-05-19T21:13:26;12.57;;;11.05;;
67164;SDS011;54093;50.014;19.984;2023-05-19T21:22:47;17.75;;;10.15;;
67164;SDS011;54093;50.014;19.984;2023-05-19T21:32:08;14.00;;;8.65;;
67164;SDS011;54093;50.014;19.984;2023-05-19T21:41:30;10.32;;;8.60;;
67164;SDS011;54093;50.014;19.984;2023-05-19T21:50:52;11.63;;;9.30;;
67164;SDS011;54093;50.014;19.984;2023-05-19T22:00:17;10.53;;;9.53;;
67164;SDS011;54093;50.014;19.984;2023-05-19T22:09:38;12.48;;;9.43;;
67164;SDS011;54093;50.014;19.984;2023-05-19T22:18:59;14.20;;;10.00;;
67164;SDS011;54093;50.014;19.984;2023-05-19T22:28:20;14.98;;;10.48;;
67164;SDS011;54093;50.014;19.984;2023-05-19T22:37:41;16.20;;;12.38;;
67164;SDS011;54093;50.014;19.984;2023-05-19T22:47:02;23.67;;;15.07;;
67164;SDS011;54093;50.014;19.984;2023-05-19T22:56:22;17.45;;;10.70;;
67164;SDS011;54093;50.014;19.984;2023-05-19T23:05:43;20.42;;;11.52;;
67164;SDS011;54093;50.014;19.984;2023-05-19T23:15:05;25.45;;;13.13;;
67164;SDS011;54093;50.014;19.984;2023-05-19T23:24:27;27.90;;;13.85;;
67164;SDS011;54093;50.014;19.984;2023-05-19T23:33:47;27.80;;;16.15;;
67164;SDS011;54093;50.014;19.984;2023-05-19T23:43:08;36.55;;;18.40;;
67164;SDS011;54093;50.014;19.984;2023-05-19T23:52:29;34.33;;;12.30;;
